Time;durP1;ratioP1;P1;durP2;ratioP2;P2;SDS_P1;SDS_P2;PMS_P1;PMS_P2;Temp;Humidity;BMP_temperature;BMP_pressure;BME280_temperature;BME280_humidity;BME280_pressure;Samples;Min_cycle;Max_cycle;Signal;HPM_P1;HPM_P2
2024/02/04 00:01:40;;;;;;;2.00;1.20;;;;;;;7.32;100.00;98902.27;87152;266;136262;-73
2024/02/04 00:03:42;;;;;;;2.20;1.20;;;;;;;7.24;100.00;98895.15;87327;273;22881;-75
2024/02/04 00:05:44;;;;;;;2.20;1.00;;;;;;;7.23;100.00;98911.36;87047;270;136566;-73
2024/02/04 00:07:46;;;;;;;1.60;0.50;;;;;;;7.24;100.00;98913.36;87476;278;24632;-75
2024/02/04 00:09:48;;;;;;;3.00;1.80;;;;;;;7.25;100.00;98916.39;87111;266;136901;-75
2024/02/04 00:11:50;;;;;;;1.50;1.00;;;;;;;7.27;100.00;98917.02;87168;270;23998;-75
2024/02/04 00:13:51;;;;;;;1.70;0.90;;;;;;;7.32;100.00;98918.77;87168;277;136941;-75
2024/02/04 00:15:54;;;;;;;1.90;0.80;;;;;;;7.32;100.00;98917.26;87320;270;25236;-76
2024/02/04 00:17:56;;;;;;;1.60;0.90;;;;;;;7.31;100.00;98915.66;87319;270;137306;-73
2024/02/04 00:19:59;;;;;;;2.50;0.80;;;;;;;7.28;100.00;98915.90;87126;270;24081;-77
2024/02/04 00:22:01;;;;;;;2.90;0.40;;;;;;;7.22;100.00;98917.16;87166;271;135850;-75
2024/02/04 00:24:05;;;;;;;2.00;0.60;;;;;;;7.17;100.00;98917.91;87062;271;136068;-76
2024/02/04 00:26:06;;;;;;;0.50;0.50;;;;;;;7.16;100.00;98917.44;87239;270;25329;-74
2024/02/04 00:28:11;;;;;;;0.70;0.40;;;;;;;7.17;100.00;98916.21;87124;277;137063;-75
2024/02/04 00:30:14;;;;;;;1.20;0.60;;;;;;;7.18;100.00;98916.21;87143;275;22561;-73
2024/02/04 00:32:15;;;;;;;0.60;0.30;;;;;;;7.20;100.00;98902.52;87127;273;136661;-73
2024/02/04 00:34:17;;;;;;;1.50;0.40;;;;;;;7.22;100.00;98915.09;87243;270;22584;-75
2024/02/04 00:36:21;;;;;;;0.50;0.10;;;;;;;7.21;100.00;98911.61;87086;278;138196;-74
2024/02/04 00:38:23;;;;;;;0.20;0.10;;;;;;;7.19;100.00;98918.66;87053;269;25255;-73
2024/02/04 00:40:26;;;;;;;1.80;0.20;;;;;;;7.14;100.00;98932.39;86966;270;136973;-77
2024/02/04 00:42:28;;;;;;;2.30;0.70;;;;;;;7.11;100.00;98917.95;87599;271;22645;-75
2024/02/04 00:44:30;;;;;;;0.90;0.20;;;;;;;7.08;100.00;98908.77;86548;271;637476;-74
2024/02/04 00:46:32;;;;;;;0.20;0.20;;;;;;;7.07;100.00;98914.45;87172;274;22608;-73
2024/02/04 00:48:34;;;;;;;2.10;0.10;;;;;;;7.08;100.00;98913.05;86811;269;136461;-72
2024/02/04 00:50:36;;;;;;;2.70;1.10;;;;;;;7.06;100.00;98918.88;87076;270;22628;-73
2024/02/04 00:52:38;;;;;;;3.70;0.10;;;;;;;7.05;100.00;98915.13;87030;270;137325;-74
2024/02/04 00:54:40;;;;;;;0.80;0.20;;;;;;;7.04;100.00;98918.09;87115;280;25224;-72
2024/02/04 00:56:42;;;;;;;0.60;0.10;;;;;;;7.03;100.00;98923.52;86977;271;136733;-74
2024/02/04 00:58:45;;;;;;;0.80;0.30;;;;;;;7.04;100.00;98930.12;87174;278;22558;-74
2024/02/04 01:00:49;;;;;;;0.50;0.10;;;;;;;7.03;100.00;98934.44;87214;274;136190;-75
2024/02/04 01:02:51;;;;;;;0.40;0.10;;;;;;;7.01;100.00;98928.52;87293;266;24053;-73
2024/02/04 01:04:53;;;;;;;1.30;0.20;;;;;;;6.97;100.00;98932.19;87263;266;136200;-74
2024/02/04 01:06:55;;;;;;;0.40;0.10;;;;;;;6.92;100.00;98924.67;87285;274;25216;-75
2024/02/04 01:09:02;;;;;;;1.40;0.20;;;;;;;6.87;100.00;98924.82;87040;269;136263;-75
2024/02/04 01:11:05;;;;;;;2.20;0.20;;;;;;;6.84;100.00;98922.44;87546;270;22652;-73
2024/02/04 01:13:07;;;;;;;0.90;0.20;;;;;;;6.83;100.00;98924.64;87247;274;137044;-74
2024/02/04 01:15:09;;;;;;;0.60;0.40;;;;;;;6.85;100.00;98919.22;87274;275;25121;-73
2024/02/04 01:17:11;;;;;;;1.20;0.20;;;;;;;6.87;100.00;98919.64;87181;277;136944;-74
2024/02/04 01:19:13;;;;;;;0.40;0.10;;;;;;;6.89;100.00;98918.49;87604;274;24122;-74
2024/02/04 01:21:14;;;;;;;1.20;0.30;;;;;;;6.87;100.00;98922.08;87113;272;136888;-74
2024/02/04 01:23:19;;;;;;;1.60;0.20;;;;;;;6.87;100.00;98925.09;87277;274;22580;-74
2024/02/04 01:25:21;;;;;;;;;;;;;;;6.86;100.00;98928.04;87478;271;136558;-74
2024/02/04 01:27:23;;;;;;;1.20;0.40;;;;;;;6.86;100.00;98927.27;88213;266;25076;-73
2024/02/04 01:29:25;;;;;;;1.80;0.90;;;;;;;6.86;100.00;98928.23;87921;270;137927;-75
2024/02/04 01:31:27;;;;;;;1.50;1.10;;;;;;;6.87;100.00;98928.93;88061;277;25249;-73
2024/02/04 01:33:29;;;;;;;0.70;0.40;;;;;;;6.89;100.00;98925.92;87743;270;137962;-73
2024/02/04 01:35:31;;;;;;;1.40;0.80;;;;;;;6.91;100.00;98927.56;88002;274;22595;-74
2024/02/04 01:37:33;;;;;;;2.90;0.50;;;;;;;6.94;100.00;98926.06;88314;271;136482;-73
2024/02/04 01:39:35;;;;;;;1.20;0.30;;;;;;;6.99;100.00;98929.95;87939;273;22565;-72
2024/02/04 01:41:37;;;;;;;1.50;0.60;;;;;;;7.00;100.00;98929.98;87046;271;136442;-75
2024/02/04 01:43:40;;;;;;;1.40;0.80;;;;;;;6.98;100.00;98932.11;87254;267;22563;-74
2024/02/04 01:45:42;;;;;;;1.40;1.00;;;;;;;6.94;100.00;98929.20;87157;273;135867;-73
2024/02/04 01:47:44;;;;;;;2.50;0.70;;;;;;;6.89;100.00;98931.75;87223;271;22584;-73
2024/02/04 01:49:45;;;;;;;2.50;1.00;;;;;;;6.85;100.00;98930.11;87136;270;136513;-73
2024/02/04 01:51:48;;;;;;;1.90;0.40;;;;;;;6.83;100.00;98934.61;87070;272;25346;-73
2024/02/04 01:53:50;;;;;;;1.00;0.40;;;;;;;6.81;100.00;98931.48;87207;278;136544;-73
2024/02/04 01:55:52;;;;;;;1.60;0.60;;;;;;;6.78;100.00;98936.77;87252;271;22630;-73
2024/02/04 01:57:54;;;;;;;6.30;2.60;;;;;;;6.76;100.00;98934.77;86955;280;141000;-75
2024/02/04 01:59:57;;;;;;;3.20;0.60;;;;;;;6.78;100.00;98931.30;87201;269;22635;-74
2024/02/04 02:02:00;;;;;;;0.60;0.50;;;;;;;6.80;100.00;98936.70;87152;272;136944;-72
2024/02/04 02:04:02;;;;;;;2.50;0.70;;;;;;;6.80;100.00;98932.09;87241;274;22552;-73
2024/02/04 02:06:05;;;;;;;2.80;0.90;;;;;;;6.82;100.00;98937.52;87398;269;25076;-73
2024/02/04 02:08:07;;;;;;;1.60;0.40;;;;;;;6.85;100.00;98934.55;87254;265;137450;-73
2024/02/04 02:10:10;;;;;;;2.40;0.50;;;;;;;6.86;100.00;98939.36;87192;271;22624;-74
2024/02/04 02:12:41;;;;;;;3.70;0.60;;;;;;;6.90;100.00;98940.68;87181;271;136884;-72
2024/02/04 02:14:46;;;;;;;1.70;0.80;;;;;;;6.89;100.00;98943.73;87366;277;22677;-73
2024/02/04 02:16:48;;;;;;;3.10;1.30;;;;;;;6.86;100.00;98944.83;87144;272;136201;-74
2024/02/04 02:18:54;;;;;;;3.90;0.70;;;;;;;6.84;100.00;98946.85;87288;277;22568;-73
2024/02/04 02:21:15;;;;;;;2.40;0.90;;;;;;;6.81;100.00;98946.88;87118;273;136217;-72
2024/02/04 02:23:22;;;;;;;4.70;0.50;;;;;;;6.80;100.00;98942.29;87200;271;25121;-73
2024/02/04 02:25:25;;;;;;;2.00;0.30;;;;;;;6.78;100.00;98945.25;87342;274;135876;-72
2024/02/04 02:27:26;;;;;;;5.30;1.40;;;;;;;6.83;100.00;98939.96;87102;274;22556;-73
2024/02/04 02:29:28;;;;;;;1.60;0.40;;;;;;;6.91;100.00;98939.58;87179;265;137903;-74
2024/02/04 02:31:34;;;;;;;2.80;0.60;;;;;;;6.98;100.00;98934.51;87203;277;22558;-72
2024/02/04 02:33:48;;;;;;;10.60;1.00;;;;;;;6.96;100.00;98942.04;87177;272;136295;-74
2024/02/04 02:35:56;;;;;;;1.30;0.30;;;;;;;6.92;100.00;98947.05;87265;273;25217;-73
2024/02/04 02:38:04;;;;;;;4.80;1.10;;;;;;;6.92;100.00;98949.60;87411;279;135647;-73
2024/02/04 02:40:19;;;;;;;1.20;0.80;;;;;;;6.92;100.00;98950.26;87080;278;137751;-74
2024/02/04 02:42:23;;;;;;;5.00;0.50;;;;;;;6.91;100.00;98955.27;87258;266;23932;-73
2024/02/04 02:44:26;;;;;;;1.50;0.30;;;;;;;6.90;100.00;98953.67;87227;271;136388;-73
2024/02/04 02:46:29;;;;;;;2.20;0.40;;;;;;;6.88;100.00;98956.02;87241;271;25303;-74
2024/02/04 02:48:31;;;;;;;4.00;0.40;;;;;;;6.82;100.00;98950.05;87261;277;137119;-73
2024/02/04 02:50:33;;;;;;;3.00;0.30;;;;;;;6.81;100.00;98954.50;87393;270;26286;-73
2024/02/04 02:52:35;;;;;;;4.20;0.50;;;;;;;6.78;100.00;98954.94;86876;280;136182;-73
2024/02/04 02:54:36;;;;;;;2.90;0.70;;;;;;;6.81;100.00;98957.73;87161;270;24039;-74
2024/02/04 02:56:38;;;;;;;4.30;1.00;;;;;;;6.87;100.00;98957.67;87074;266;136573;-73
2024/02/04 02:58:40;;;;;;;5.40;0.60;;;;;;;6.89;100.00;98955.15;87162;279;25102;-73
2024/02/04 03:00:42;;;;;;;1.90;0.50;;;;;;;6.89;100.00;98952.73;87031;275;136995;-73
2024/02/04 03:02:44;;;;;;;2.90;0.90;;;;;;;6.88;100.00;98954.00;87303;270;25979;-71
2024/02/04 03:04:46;;;;;;;2.10;1.20;;;;;;;6.87;100.00;98951.95;87186;278;136090;-73
2024/02/04 03:06:48;;;;;;;4.00;1.50;;;;;;;6.87;100.00;98947.23;87243;270;25090;-74
2024/02/04 03:08:50;;;;;;;1.30;0.30;;;;;;;6.86;100.00;98942.87;87130;269;136175;-71
2024/02/04 03:10:52;;;;;;;2.60;0.30;;;;;;;6.86;100.00;98938.67;87122;271;25297;-73
2024/02/04 03:12:54;;;;;;;2.60;0.50;;;;;;;6.83;100.00;98935.08;87102;270;136394;-74
2024/02/04 03:14:56;;;;;;;1.80;0.70;;;;;;;6.79;100.00;98936.80;87141;267;22628;-74
2024/02/04 03:16:58;;;;;;;8.40;2.10;;;;;;;6.79;100.00;98935.99;87148;274;136326;-72
2024/02/04 03:19:05;;;;;;;3.90;0.60;;;;;;;6.79;100.00;98934.94;87315;270;22963;-74
2024/02/04 03:21:15;;;;;;;1.50;0.40;;;;;;;6.80;100.00;98936.95;87161;271;137088;-72
2024/02/04 03:23:17;;;;;;;2.50;0.50;;;;;;;6.80;100.00;98934.73;87156;276;25303;-73
2024/02/04 03:25:19;;;;;;;3.00;0.50;;;;;;;6.80;100.00;98939.55;87188;266;137683;-74
2024/02/04 03:27:21;;;;;;;5.00;1.20;;;;;;;6.79;100.00;98942.92;87287;275;25259;-74
2024/02/04 03:29:23;;;;;;;7.00;2.00;;;;;;;6.75;100.00;98947.23;87377;266;136134;-75
2024/02/04 03:31:25;;;;;;;5.70;1.90;;;;;;;6.71;100.00;98947.41;87160;279;22560;-73
2024/02/04 03:33:28;;;;;;;4.10;2.70;;;;;;;6.70;100.00;98948.50;87278;274;135910;-74
2024/02/04 03:35:30;;;;;;;11.60;7.10;;;;;;;6.67;100.00;98954.39;87256;271;25127;-73
2024/02/04 03:37:32;;;;;;;8.00;4.90;;;;;;;6.62;100.00;98950.83;87047;272;136447;-74
2024/02/04 03:39:34;;;;;;;7.00;4.30;;;;;;;6.58;100.00;98954.23;87270;274;22557;-73
2024/02/04 03:41:36;;;;;;;9.20;4.60;;;;;;;6.54;100.00;98957.03;87163;270;135623;-73
2024/02/04 03:43:37;;;;;;;5.00;3.70;;;;;;;6.49;100.00;98951.86;87223;270;22586;-73
2024/02/04 03:45:39;;;;;;;8.20;4.30;;;;;;;6.42;100.00;98950.94;87158;270;137138;-72
2024/02/04 03:47:41;;;;;;;7.50;3.50;;;;;;;6.37;100.00;98959.05;87224;270;26341;-73
2024/02/04 03:49:43;;;;;;;6.70;2.90;;;;;;;6.33;100.00;98951.38;87139;262;135695;-74
2024/02/04 03:51:45;;;;;;;4.30;2.90;;;;;;;6.35;100.00;98950.45;87242;270;24250;-73
2024/02/04 03:53:49;;;;;;;5.50;2.60;;;;;;;6.41;100.00;98953.71;86945;279;136583;-73
2024/02/04 03:55:51;;;;;;;3.90;1.10;;;;;;;6.45;100.00;98952.17;87070;271;22524;-74
2024/02/04 03:57:57;;;;;;;2.60;1.50;;;;;;;6.44;100.00;98951.83;86914;272;135854;-72
2024/02/04 03:59:58;;;;;;;4.90;2.10;;;;;;;6.39;100.00;98951.13;87512;266;27088;-75
2024/02/04 04:02:01;;;;;;;4.50;2.50;;;;;;;6.39;100.00;98953.40;87137;278;135828;-73
2024/02/04 04:04:02;;;;;;;5.20;1.60;;;;;;;6.39;100.00;98952.76;87217;278;22569;-72
2024/02/04 04:06:05;;;;;;;2.90;1.10;;;;;;;6.38;100.00;98955.17;87237;270;22648;-74
2024/02/04 04:08:06;;;;;;;3.30;1.60;;;;;;;6.37;100.00;98961.94;87393;277;136168;-74
2024/02/04 04:10:09;;;;;;;3.80;1.60;;;;;;;6.38;100.00;98966.14;87272;271;24449;-73
2024/02/04 04:12:11;;;;;;;5.00;1.90;;;;;;;6.36;100.00;98970.37;87453;267;137289;-72
2024/02/04 04:14:13;;;;;;;5.80;1.90;;;;;;;6.35;100.00;98978.83;87080;272;22601;-72
2024/02/04 04:16:21;;;;;;;3.90;2.30;;;;;;;6.33;100.00;98984.73;87246;266;136039;-71
2024/02/04 04:18:22;;;;;;;5.80;2.50;;;;;;;6.31;100.00;98980.42;87391;270;23739;-72
2024/02/04 04:20:27;;;;;;;4.70;3.40;;;;;;;6.30;100.00;98981.28;87231;266;135788;-73
2024/02/04 04:22:29;;;;;;;4.50;1.80;;;;;;;6.31;100.00;98984.42;87211;266;24180;-73
2024/02/04 04:24:30;;;;;;;2.80;1.90;;;;;;;6.37;100.00;98982.23;87081;270;137671;-72
2024/02/04 04:26:33;;;;;;;5.30;1.50;;;;;;;6.44;100.00;98982.42;87231;270;22534;-72
2024/02/04 04:28:36;;;;;;;4.60;1.60;;;;;;;6.47;100.00;98985.33;87192;270;136403;-73
2024/02/04 04:30:38;;;;;;;5.40;0.70;;;;;;;6.45;100.00;98988.75;87224;277;25092;-73
2024/02/04 04:32:40;;;;;;;3.10;0.90;;;;;;;6.45;100.00;98991.71;87189;277;136177;-73
2024/02/04 04:34:42;;;;;;;5.10;0.90;;;;;;;6.45;100.00;98988.49;87248;270;22589;-75
2024/02/04 04:36:44;;;;;;;2.00;1.40;;;;;;;6.43;100.00;98991.62;87168;275;135581;-73
2024/02/04 04:38:49;;;;;;;2.70;1.40;;;;;;;6.36;100.00;98991.53;87267;270;24018;-73
2024/02/04 04:40:52;;;;;;;4.60;1.70;;;;;;;6.30;100.00;98994.84;87283;269;136017;-70
2024/02/04 04:42:53;;;;;;;4.10;1.40;;;;;;;6.26;100.00;98993.79;87273;277;25147;-72
2024/02/04 04:46:49;;;;;;;4.20;1.90;;;;;;;6.07;100.00;98988.85;85136;300;603355;-73
2024/02/04 04:48:52;;;;;;;4.30;1.90;;;;;;;6.06;100.00;98984.48;86152;288;135282;-73
2024/02/04 04:50:54;;;;;;;4.00;1.90;;;;;;;6.07;100.00;98988.16;86252;290;22581;-73
2024/02/04 04:52:56;;;;;;;5.60;2.50;;;;;;;6.14;100.00;98986.10;86060;290;135664;-72
2024/02/04 04:54:58;;;;;;;7.80;4.50;;;;;;;6.24;100.00;98987.50;86179;287;26585;-73
2024/02/04 04:56:59;;;;;;;8.00;6.10;;;;;;;6.31;100.00;98984.34;85933;289;135699;-73
2024/02/04 04:59:01;;;;;;;11.80;7.30;;;;;;;6.33;100.00;98989.65;86151;288;22644;-73
2024/02/04 05:01:04;;;;;;;11.50;7.70;;;;;;;6.31;100.00;98994.11;85620;286;666375;-71
2024/02/04 05:03:06;;;;;;;12.40;8.90;;;;;;;6.28;100.00;98992.66;86507;285;22565;-72
2024/02/04 05:05:08;;;;;;;14.40;10.70;;;;;;;6.20;100.00;99001.94;86166;282;135902;-74
2024/02/04 05:07:10;;;;;;;13.40;9.20;;;;;;;6.13;100.00;99003.26;86452;281;24005;-74
2024/02/04 05:09:12;;;;;;;14.10;9.40;;;;;;;6.09;100.00;98999.48;86836;279;135152;-71
2024/02/04 05:11:14;;;;;;;14.30;9.00;;;;;;;6.07;100.00;98994.89;86855;275;22563;-72
2024/02/04 05:13:16;;;;;;;10.60;7.40;;;;;;;6.05;100.00;98995.30;86861;275;135500;-71
2024/02/04 05:15:18;;;;;;;12.40;6.70;;;;;;;6.03;100.00;98994.08;86965;274;25185;-72
2024/02/04 05:17:20;;;;;;;8.80;4.60;;;;;;;6.01;100.00;98992.44;86744;280;135837;-75
2024/02/04 05:19:22;;;;;;;6.80;4.60;;;;;;;6.06;100.00;98989.58;86980;283;22570;-72
2024/02/04 05:21:24;;;;;;;10.20;5.60;;;;;;;6.15;100.00;98993.59;86973;272;136206;-72
2024/02/04 05:23:27;;;;;;;7.90;4.30;;;;;;;6.22;100.00;98993.97;86889;275;24005;-74
2024/02/04 05:25:29;;;;;;;6.90;4.30;;;;;;;6.24;100.00;99000.45;87125;271;135979;-73
2024/02/04 05:27:31;;;;;;;7.50;4.60;;;;;;;6.23;100.00;98998.94;86928;272;24014;-75
2024/02/04 05:29:32;;;;;;;6.20;4.70;;;;;;;6.20;100.00;98999.00;86711;282;137209;-71
2024/02/04 05:31:41;;;;;;;7.00;4.00;;;;;;;6.20;100.00;98999.12;86924;282;22592;-73
2024/02/04 05:33:43;;;;;;;7.50;3.80;;;;;;;6.19;100.00;99000.88;87036;270;135485;-73
2024/02/04 05:35:45;;;;;;;5.00;3.80;;;;;;;6.17;100.00;98999.67;86852;282;25259;-72
2024/02/04 05:37:46;;;;;;;8.00;3.80;;;;;;;6.16;100.00;99002.76;86614;267;136313;-72
2024/02/04 05:39:48;;;;;;;4.90;3.50;;;;;;;6.12;100.00;99006.27;86786;283;22853;-73
2024/02/04 05:41:50;;;;;;;7.80;2.40;;;;;;;6.08;100.00;99003.63;86586;273;136073;-72
2024/02/04 05:43:53;;;;;;;5.30;2.60;;;;;;;6.06;100.00;99006.50;86741;271;22570;-72
2024/02/04 05:45:55;;;;;;;4.70;2.50;;;;;;;6.04;100.00;99002.27;86666;278;136065;-72
2024/02/04 05:47:57;;;;;;;2.50;1.60;;;;;;;6.06;100.00;99002.02;86756;275;22574;-71
2024/02/04 05:49:59;;;;;;;2.80;1.70;;;;;;;6.15;100.00;99002.70;86776;275;136993;-72
2024/02/04 05:52:02;;;;;;;5.70;1.40;;;;;;;6.21;100.00;99008.08;86866;275;137185;-70
2024/02/04 05:54:04;;;;;;;4.70;1.60;;;;;;;6.23;100.00;99004.27;86819;276;24020;-72
2024/02/04 05:56:06;;;;;;;4.40;2.20;;;;;;;6.23;100.00;99003.33;86628;275;136420;-72
2024/02/04 05:58:07;;;;;;;3.50;2.00;;;;;;;6.21;100.00;99004.39;86746;275;22570;-74
2024/02/04 06:00:10;;;;;;;2.10;0.90;;;;;;;6.19;100.00;99002.41;86711;272;135812;-71
2024/02/04 06:02:12;;;;;;;4.00;1.80;;;;;;;6.17;100.00;99003.09;86777;275;22631;-74
2024/02/04 06:04:14;;;;;;;3.60;1.50;;;;;;;6.18;100.00;99004.98;86884;271;135713;-73
2024/02/04 06:06:19;;;;;;;7.90;4.80;;;;;;;6.18;100.00;99008.15;87021;274;25140;-75
2024/02/04 06:08:21;;;;;;;9.00;5.90;;;;;;;6.17;100.00;99010.55;86817;273;135378;-76
2024/02/04 06:10:24;;;;;;;7.90;4.60;;;;;;;6.15;100.00;99007.30;87010;274;24025;-73
2024/02/04 06:12:25;;;;;;;5.10;2.60;;;;;;;6.13;100.00;99009.89;86646;271;135788;-74
2024/02/04 06:14:27;;;;;;;3.40;1.40;;;;;;;6.17;100.00;99010.88;86889;271;25227;-75
2024/02/04 06:16:29;;;;;;;4.80;1.30;;;;;;;6.28;100.00;99007.31;86760;275;136197;-74
2024/02/04 06:18:31;;;;;;;0.90;0.60;;;;;;;6.34;100.00;99012.77;86870;283;24151;-73
2024/02/04 06:20:34;;;;;;;4.00;0.90;;;;;;;6.35;100.00;99009.16;86942;271;136000;-74
2024/02/04 06:22:36;;;;;;;3.90;1.50;;;;;;;6.32;100.00;99012.06;87101;274;22579;-72
2024/02/04 06:24:40;;;;;;;7.40;3.10;;;;;;;6.28;100.00;99011.30;86941;271;136350;-73
2024/02/04 06:26:44;;;;;;;5.30;2.90;;;;;;;6.24;100.00;99014.05;87093;271;25185;-73
2024/02/04 06:28:48;;;;;;;10.30;6.20;;;;;;;6.20;100.00;99013.05;87766;282;135279;-74
2024/02/04 06:30:51;;;;;;;;;;;;;;;6.15;100.00;99012.89;88350;279;22709;-72
2024/02/04 06:32:53;;;;;;;13.10;8.80;;;;;;;6.13;100.00;99017.95;88387;275;122056;-73
2024/02/04 06:34:58;;;;;;;18.60;8.30;;;;;;;6.12;100.00;99012.33;88525;271;22592;-75
2024/02/04 06:37:00;;;;;;;9.50;5.40;;;;;;;6.11;100.00;99008.30;88562;273;135419;-75
2024/02/04 06:39:02;;;;;;;5.50;3.40;;;;;;;6.14;100.00;99006.89;88754;271;22691;-73
2024/02/04 06:41:04;;;;;;;2.90;1.10;;;;;;;6.13;100.00;99005.83;88528;269;135748;-74
2024/02/04 06:43:06;;;;;;;3.60;1.50;;;;;;;6.16;100.00;99006.42;88514;281;22645;-73
2024/02/04 06:45:08;;;;;;;6.50;2.10;;;;;;;6.23;100.00;99000.94;88027;268;136445;-73
2024/02/04 06:47:13;;;;;;;3.40;1.70;;;;;;;6.29;100.00;99005.17;87226;271;22740;-75
2024/02/04 06:49:18;;;;;;;5.00;1.70;;;;;;;6.29;100.00;99000.49;87145;265;135856;-74
2024/02/04 06:51:20;;;;;;;;;;;;;;;6.25;100.00;99004.41;87185;280;25306;-74
2024/02/04 06:53:22;;;;;;;4.10;1.30;;;;;;;6.24;100.00;99003.71;86920;277;122406;-74
2024/02/04 06:55:24;;;;;;;3.90;1.60;;;;;;;6.22;100.00;99004.30;87152;269;25281;-75
2024/02/04 06:57:26;;;;;;;2.40;1.30;;;;;;;6.22;100.00;99006.10;86943;281;135497;-75
2024/02/04 06:59:28;;;;;;;3.10;1.20;;;;;;;6.20;100.00;99007.99;86892;274;22567;-75
2024/02/04 07:01:31;;;;;;;3.30;1.30;;;;;;;6.18;100.00;99009.97;87420;278;136330;-73
2024/02/04 07:03:33;;;;;;;2.70;1.50;;;;;;;6.14;100.00;99011.08;87166;274;26965;-74
2024/02/04 07:05:37;;;;;;;2.90;1.60;;;;;;;6.13;100.00;99013.73;86959;270;135937;-74
2024/02/04 07:07:39;;;;;;;8.90;3.50;;;;;;;6.13;100.00;99016.01;87420;270;25172;-75
2024/02/04 07:09:41;;;;;;;3.70;1.10;;;;;;;6.13;100.00;99017.92;87071;274;135999;-75
2024/02/04 07:11:43;;;;;;;2.50;0.60;;;;;;;6.19;100.00;99013.85;87129;276;22781;-73
2024/02/04 07:13:45;;;;;;;1.60;0.70;;;;;;;6.29;100.00;99019.33;87141;272;137377;-73
2024/02/04 07:15:47;;;;;;;2.90;1.60;;;;;;;6.35;100.00;99014.81;87172;279;25124;-74
2024/02/04 07:17:49;;;;;;;6.30;1.90;;;;;;;6.35;100.00;99019.25;87223;267;136574;-73
2024/02/04 07:19:51;;;;;;;3.80;1.30;;;;;;;6.30;100.00;99015.61;87198;266;25280;-74
2024/02/04 07:21:53;;;;;;;5.10;1.50;;;;;;;6.26;100.00;99023.19;87114;268;136704;-74
2024/02/04 07:23:55;;;;;;;4.90;1.30;;;;;;;6.20;100.00;99025.38;87320;275;22549;-75
2024/02/04 07:25:57;;;;;;;5.00;1.10;;;;;;;6.14;100.00;99022.77;87062;276;135212;-75
2024/02/04 07:27:59;;;;;;;3.40;1.50;;;;;;;6.09;100.00;99024.63;87235;271;24200;-74
2024/02/04 07:30:00;;;;;;;4.40;0.80;;;;;;;6.04;100.00;99020.20;87026;272;135393;-72
2024/02/04 07:32:03;;;;;;;2.80;0.70;;;;;;;6.02;100.00;99022.10;87078;271;136412;-73
2024/02/04 07:34:05;;;;;;;3.60;1.80;;;;;;;6.06;100.00;99024.41;87313;280;25249;-73
2024/02/04 07:36:08;;;;;;;4.40;1.90;;;;;;;6.15;100.00;99025.95;87027;273;137594;-75
2024/02/04 07:38:10;;;;;;;2.80;1.10;;;;;;;6.19;100.00;99022.89;87220;279;25352;-75
2024/02/04 07:40:12;;;;;;;11.60;4.60;;;;;;;6.18;100.00;99025.20;87105;275;135882;-75
2024/02/04 07:42:14;;;;;;;5.10;2.40;;;;;;;6.19;100.00;99025.86;87245;274;24215;-74
2024/02/04 07:44:16;;;;;;;2.40;0.90;;;;;;;6.23;100.00;99027.73;87143;267;136266;-76
2024/02/04 07:46:17;;;;;;;2.50;0.90;;;;;;;6.25;100.00;99026.64;87173;271;22676;-76
2024/02/04 07:48:20;;;;;;;2.60;1.10;;;;;;;6.26;100.00;99024.97;87170;278;135890;-75
2024/02/04 07:50:22;;;;;;;9.20;2.90;;;;;;;6.27;100.00;99029.50;87112;271;25111;-73
2024/02/04 07:52:24;;;;;;;3.20;1.80;;;;;;;6.28;100.00;99026.90;87057;271;135528;-73
2024/02/04 07:54:26;;;;;;;2.60;1.40;;;;;;;6.33;100.00;99023.86;87236;274;23051;-74
2024/02/04 07:56:29;;;;;;;1.20;1.10;;;;;;;6.42;100.00;99032.23;86954;272;136232;-74
2024/02/04 07:58:31;;;;;;;4.40;1.70;;;;;;;6.52;100.00;99032.03;87069;273;22567;-74
2024/02/04 08:00:33;;;;;;;4.20;1.80;;;;;;;6.57;100.00;99036.27;87186;276;136373;-72
2024/02/04 08:02:36;;;;;;;3.00;1.40;;;;;;;6.59;100.00;99035.30;87035;268;22542;-74
2024/02/04 08:04:41;;;;;;;2.70;1.50;;;;;;;6.59;100.00;99030.52;87523;271;136085;-73
2024/02/04 08:06:43;;;;;;;3.40;1.10;;;;;;;6.58;100.00;99033.42;87317;278;22649;-73
2024/02/04 08:08:47;;;;;;;7.30;1.20;;;;;;;6.61;100.00;99039.14;87226;271;135682;-73
2024/02/04 08:10:52;;;;;;;3.50;1.10;;;;;;;6.61;100.00;99033.39;87277;274;24114;-73
2024/02/04 08:12:54;;;;;;;3.30;0.60;;;;;;;6.62;100.00;99040.04;87132;266;136125;-75
2024/02/04 08:14:56;;;;;;;3.30;0.90;;;;;;;6.62;100.00;99038.95;87330;271;23574;-74
2024/02/04 08:16:59;;;;;;;9.10;1.70;;;;;;;6.60;100.00;99035.83;87306;269;136261;-75
2024/02/04 08:19:06;;;;;;;2.60;0.50;;;;;;;6.62;100.00;99031.89;87055;273;23892;-75
2024/02/04 08:21:08;;;;;;;1.20;0.60;;;;;;;6.64;100.00;99027.10;87181;272;136193;-72
2024/02/04 08:23:10;;;;;;;5.40;1.20;;;;;;;6.63;100.00;99036.34;87393;274;25252;-76
2024/02/04 08:25:12;;;;;;;3.70;0.70;;;;;;;6.58;100.00;99042.79;87214;278;137328;-74
2024/02/04 08:27:15;;;;;;;4.00;0.70;;;;;;;6.50;100.00;99046.80;87214;272;24001;-74
2024/02/04 08:29:18;;;;;;;4.30;2.00;;;;;;;6.42;100.00;99040.56;87244;271;136162;-74
2024/02/04 08:31:21;;;;;;;9.10;1.20;;;;;;;6.37;100.00;99040.04;87199;275;24042;-74
2024/02/04 08:33:25;;;;;;;2.60;1.00;;;;;;;6.32;100.00;99038.38;87083;275;136026;-77
2024/02/04 08:35:27;;;;;;;2.60;1.10;;;;;;;6.27;100.00;99036.34;87395;273;25150;-75
2024/02/04 08:37:29;;;;;;;8.30;2.60;;;;;;;6.29;100.00;99036.60;86999;273;136216;-78
2024/02/04 08:39:30;;;;;;;4.50;1.40;;;;;;;6.37;100.00;99034.17;87602;273;22505;-75
2024/02/04 08:41:32;;;;;;;4.20;1.40;;;;;;;6.43;100.00;99028.30;87391;279;137638;-75
2024/02/04 08:43:34;;;;;;;3.40;1.30;;;;;;;6.44;100.00;99031.04;87122;276;22612;-74
2024/02/04 08:45:36;;;;;;;2.30;0.90;;;;;;;6.42;100.00;99034.38;87103;271;136768;-74
2024/02/04 08:47:39;;;;;;;4.20;1.30;;;;;;;6.44;100.00;99033.81;87139;267;22564;-74
2024/02/04 08:49:41;;;;;;;5.00;1.20;;;;;;;6.47;100.00;99033.66;86857;273;136177;-75
2024/02/04 08:51:43;;;;;;;5.00;1.30;;;;;;;6.51;100.00;99035.08;87122;274;26163;-75
2024/02/04 08:53:45;;;;;;;3.60;1.10;;;;;;;6.55;100.00;99036.98;87031;271;136014;-74
2024/02/04 08:55:47;;;;;;;5.00;1.20;;;;;;;6.58;100.00;99031.55;87176;276;23056;-74
2024/02/04 08:57:53;;;;;;;3.10;0.90;;;;;;;6.58;100.00;99031.98;86902;271;135807;-73
2024/02/04 08:59:57;;;;;;;3.10;1.00;;;;;;;6.64;100.00;99032.23;87468;271;22496;-77
2024/02/04 09:01:59;;;;;;;3.70;0.80;;;;;;;6.68;100.00;99022.63;87041;276;137226;-74
2024/02/04 09:04:01;;;;;;;3.40;0.90;;;;;;;6.68;100.00;99025.73;87095;279;26127;-77
2024/02/04 09:06:07;;;;;;;8.10;1.90;;;;;;;6.65;100.00;99011.87;87731;272;23631;-75
2024/02/04 09:08:10;;;;;;;3.10;0.50;;;;;;;6.60;100.00;99016.60;87093;267;136177;-74
2024/02/04 09:10:12;;;;;;;3.20;0.70;;;;;;;6.55;100.00;99013.08;87307;274;22558;-75
2024/02/04 09:12:14;;;;;;;4.10;0.80;;;;;;;6.55;100.00;99012.70;86811;271;135603;-74
2024/02/04 09:14:17;;;;;;;2.50;0.90;;;;;;;6.60;100.00;99010.25;87546;271;22541;-74
2024/02/04 09:16:19;;;;;;;5.60;2.10;;;;;;;6.71;100.00;99009.25;86974;280;136037;-74
2024/02/04 09:18:21;;;;;;;3.80;0.90;;;;;;;6.86;100.00;99007.20;87094;269;26073;-76
2024/02/04 09:20:23;;;;;;;3.20;0.80;;;;;;;7.06;100.00;99000.84;87104;278;138128;-74
2024/02/04 09:22:26;;;;;;;2.60;0.60;;;;;;;7.24;100.00;99008.29;87233;271;25149;-75
2024/02/04 09:24:29;;;;;;;3.30;1.20;;;;;;;7.32;100.00;99005.14;86914;273;136713;-72
2024/02/04 09:26:31;;;;;;;2.80;1.20;;;;;;;7.32;100.00;98996.11;87423;274;22655;-74
2024/02/04 09:28:33;;;;;;;1.70;0.80;;;;;;;7.33;100.00;99005.39;87021;268;135760;-74
2024/02/04 09:30:36;;;;;;;3.60;2.10;;;;;;;7.31;100.00;99010.68;87655;275;25559;-75
2024/02/04 09:32:38;;;;;;;4.20;0.60;;;;;;;7.28;100.00;99010.79;86962;276;136003;-73
2024/02/04 09:34:41;;;;;;;4.00;1.20;;;;;;;7.28;100.00;99010.58;87265;271;22736;-75
2024/02/04 09:36:44;;;;;;;3.20;0.90;;;;;;;7.27;100.00;99010.87;86929;268;135650;-75
2024/02/04 09:38:46;;;;;;;5.10;1.00;;;;;;;7.23;100.00;99004.16;87090;276;26213;-75
2024/02/04 09:40:48;;;;;;;3.30;1.00;;;;;;;7.09;100.00;99000.08;87163;271;135725;-76
2024/02/04 09:42:52;;;;;;;6.30;1.00;;;;;;;6.95;100.00;98999.67;87195;273;26304;-74